In Rescue
 
Open Full Screen Window  High Contrast Mode
November 25, 2020 5:11 AM EST
Present Weather: Mist
Weather Information
Wind Direction
  ---
Wind Speed
  00 kt (0 mph)
Wind Gust
  00 kt (0 mph)
Altimeter
29.86 in
Visibility
2 1/2 SM
Temperature
02° C
36° F
Dewpoint
02° C
36° F
Humidity
100%
1hr Rain Fall
00.00 in.
24hr Rain Fall
00.31 in.
Sky Condition
Overcast @ 700 ft
IFR

METAR KLDM 251011Z AUTO 00000KT 2 1/2SM BR OVC007 02/02 A2986 RMK AO2 T00200016

FAA Disclaimer: The data displayed is for advisory purposes only and is not to be used for flight planning or operations.